| time (UTC) | temp F | wind direction | speed MPH | gust MPH | rain 1hr in | rain 24hr in | rain mn in | humidity % | barometer mb |
| 20260506185038 | 70 | 74 | 3.0 | 7.0 | 0.00 | 0.00 | 0.00 | 84 | 1011.2 |
| 20260506184556 | 69 | 23 | 0.0 | 6.0 | 0.00 | 0.00 | 0.00 | 85 | 1011.2 |
| 20260506184039 | 69 | 89 | 2.0 | 11.0 | 0.00 | 0.00 | 0.00 | 84 | 1011.2 |
| 20260506183538 | 69 | 36 | 2.0 | 11.0 | 0.00 | 0.00 | 0.00 | 87 | 1011.3 |
| 20260506183101 | 68 | 5 | 4.0 | 10.0 | 0.00 | 0.00 | 0.00 | 87 | 1011.2 |
| 20260506182539 | 67 | 111 | 2.0 | 10.0 | 0.00 | 0.00 | 0.00 | 88 | 1011.3 |
| 20260506182035 | 66 | 56 | 4.0 | 10.0 | 0.00 | 0.00 | 0.00 | 88 | 1011.3 |
| 20260506181604 | 66 | 68 | 6.0 | 10.0 | 0.00 | 0.00 | 0.00 | 88 | 1011.5 |
| 20260506181036 | 65 | 10 | 6.0 | 13.0 | 0.00 | 0.00 | 0.00 | 89 | 1011.6 |
| 20260506180539 | 65 | 24 | 9.0 | 9.0 | 0.00 | 0.00 | 0.00 | 88 | 1011.9 |
| 20260506180054 | 0 | 0.0 | 0.0 | 0.00 | 0.00 | 0.00 | 1011.9 | ||
| 20260506175536 | 0 | 0.0 | 0.0 | 0.00 | 0.00 | 0.00 | 1012.1 | ||
| 20260506175038 | 0 | 0.0 | 0.0 | 0.00 | 0.00 | 0.00 | 1012.1 | ||
| 20260506174601 | 0 | 0.0 | 0.0 | 0.00 | 0.00 | 0.00 | 1012.3 | ||
| 20260506174039 | 0 | 0.0 | 0.0 | 0.00 | 0.00 | 0.00 | 1012.1 | ||
| 20260506173537 | 64 | 13.0 | 17.0 | 0.00 | 0.00 | 0.00 | 87 | 1012.7 | |
| 20260506173122 | 64 | 360 | 16.0 | 19.0 | 0.00 | 0.00 | 0.00 | 87 | 1012.9 |
| 20260506172540 | 64 | 336 | 13.0 | 19.0 | 0.00 | 0.00 | 0.00 | 87 | 1013.2 |
| 20260506172039 | 65 | 9 | 12.0 | 18.0 | 0.00 | 0.00 | 0.00 | 89 | 1013.2 |
| 20260506171557 | 65 | 317 | 9.0 | 16.0 | 0.00 | 0.00 | 0.00 | 89 | 1013.2 |
| 20260506171040 | 65 | 340 | 11.0 | 18.0 | 0.00 | 0.00 | 0.00 | 88 | 1013.3 |
| 20260506170539 | 66 | 327 | 11.0 | 18.0 | 0.00 | 0.00 | 0.00 | 87 | 1013.5 |
| 20260506170105 | 67 | 325 | 12.0 | 19.0 | 0.00 | 0.00 | 0.00 | 87 | 1013.5 |
| 20260506165535 | 68 | 360 | 11.0 | 20.0 | 0.00 | 0.00 | 0.00 | 87 | 1013.3 |
| 20260506165036 | 69 | 320 | 12.0 | 20.0 | 0.00 | 0.00 | 0.00 | 85 | 1013.3 |
| 20260506164551 | 70 | 302 | 13.0 | 20.0 | 0.00 | 0.00 | 0.00 | 84 | 1013.2 |
| 20260506164038 | 73 | 323 | 13.0 | 20.0 | 0.00 | 0.00 | 0.00 | 81 | 1012.9 |
| 20260506163535 | 77 | 333 | 11.0 | 20.0 | 0.00 | 0.00 | 0.00 | 79 | 1012.8 |
| 20260506163058 | 79 | 262 | 1.0 | 4.0 | 0.00 | 0.00 | 0.00 | 85 | 1012.5 |
| 20260506162538 | 79 | 262 | 1.0 | 4.0 | 0.00 | 0.00 | 0.00 | 85 | 1012.3 |
| 20260506162041 | 80 | 232 | 0.0 | 4.0 | 0.00 | 0.00 | 0.00 | 86 | 1012.3 |
| 20260506161546 | 79 | 231 | 0.0 | 6.0 | 0.00 | 0.00 | 0.00 | 86 | 1012.2 |
| 20260506161040 | 79 | 0 | 0.0 | 4.0 | 0.00 | 0.00 | 0.00 | 85 | 1012.2 |
| 20260506160539 | 79 | 238 | 2.0 | 5.0 | 0.00 | 0.00 | 0.00 | 86 | 1012.0 |
| 20260506160053 | 79 | 246 | 1.0 | 7.0 | 0.00 | 0.00 | 0.00 | 86 | 1011.7 |
| 20260506155539 | 79 | 254 | 1.0 | 9.0 | 0.00 | 0.00 | 0.00 | 87 | 1011.5 |
| 20260506155040 | 78 | 155 | 4.0 | 9.0 | 0.00 | 0.00 | 0.00 | 87 | 1011.4 |
| 20260506154608 | 78 | 153 | 3.0 | 7.0 | 0.00 | 0.00 | 0.00 | 87 | 1011.2 |
| 20260506154040 | 78 | 159 | 3.0 | 7.0 | 0.00 | 0.00 | 0.00 | 88 | 1011.5 |
| 20260506153536 | 78 | 162 | 3.0 | 9.0 | 0.00 | 0.00 | 0.00 | 87 | 1011.4 |
| 20260506153046 | 78 | 169 | 2.0 | 9.0 | 0.00 | 0.00 | 0.00 | 88 | 1011.5 |
| 20260506152536 | 78 | 159 | 2.0 | 6.0 | 0.00 | 0.00 | 0.00 | 88 | 1011.5 |
| 20260506152035 | 77 | 182 | 2.0 | 6.0 | 0.00 | 0.00 | 0.00 | 88 | 1011.4 |
| 20260506151552 | 77 | 173 | 3.0 | 6.0 | 0.00 | 0.00 | 0.00 | 88 | 1011.4 |
| 20260506151036 | 77 | 233 | 2.0 | 5.0 | 0.00 | 0.00 | 0.00 | 88 | 1011.3 |
| 20260506150536 | 77 | 280 | 1.0 | 4.0 | 0.00 | 0.00 | 0.00 | 89 | 1011.3 |
| 20260506150044 | 77 | 212 | 2.0 | 7.0 | 0.00 | 0.00 | 0.00 | 88 | 1011.4 |
| 20260506145536 | 77 | 224 | 2.0 | 6.0 | 0.00 | 0.00 | 0.00 | 88 | 1011.5 |
| 20260506145038 | 77 | 170 | 3.0 | 7.0 | 0.00 | 0.00 | 0.00 | 89 | 1011.4 |
| 20260506144556 | 77 | 164 | 2.0 | 7.0 | 0.00 | 0.00 | 0.00 | 89 | 1011.4 |
| 20260506144035 | 77 | 0 | 0.0 | 4.0 | 0.00 | 0.00 | 0.00 | 90 | 1011.3 |
| 20260506143536 | 77 | 155 | 1.0 | 5.0 | 0.00 | 0.00 | 0.00 | 90 | 1011.2 |
| 20260506143053 | 77 | 171 | 1.0 | 6.0 | 0.00 | 0.00 | 0.00 | 90 | 1011.1 |
| 20260506142538 | 77 | 171 | 2.0 | 9.0 | 0.00 | 0.00 | 0.00 | 91 | 1011.0 |
| 20260506142039 | 76 | 155 | 2.0 | 9.0 | 0.00 | 0.00 | 0.00 | 90 | 1010.9 |
| 20260506141548 | 76 | 181 | 3.0 | 9.0 | 0.00 | 0.00 | 0.00 | 91 | 1010.9 |
| 20260506141038 | 76 | 165 | 2.0 | 7.0 | 0.00 | 0.00 | 0.00 | 91 | 1010.7 |
| 20260506140538 | 76 | 175 | 2.0 | 8.0 | 0.00 | 0.00 | 0.00 | 92 | 1010.7 |
| 20260506140047 | 76 | 192 | 3.0 | 8.0 | 0.00 | 0.00 | 0.00 | 92 | 1010.6 |
| 20260506135539 | 76 | 200 | 2.0 | 5.0 | 0.00 | 0.00 | 0.00 | 93 | 1010.6 |
| 20260506135037 | 76 | 155 | 2.0 | 4.0 | 0.00 | 0.00 | 0.00 | 93 | 1010.7 |
| 20260506134544 | 75 | 0 | 1.0 | 4.0 | 0.00 | 0.00 | 0.00 | 93 | 1010.8 |
| 20260506134036 | 75 | 171 | 1.0 | 4.0 | 0.00 | 0.00 | 0.00 | 93 | 1010.7 |
| 20260506133539 | 75 | 105 | 0.0 | 3.0 | 0.00 | 0.00 | 0.00 | 93 | 1010.7 |
| 20260506133102 | 75 | 0 | 1.0 | 3.0 | 0.00 | 0.00 | 0.00 | 93 | 1010.6 |
| 20260506132539 | 75 | 105 | 1.0 | 3.0 | 0.00 | 0.00 | 0.00 | 93 | 1010.6 |
| 20260506132040 | 75 | 0 | 0.0 | 0.0 | 0.00 | 0.00 | 0.00 | 93 | 1010.5 |
| 20260506131548 | 75 | 0 | 0.0 | 0.0 | 0.00 | 0.00 | 0.00 | 93 | 1010.6 |
| 20260506131039 | 75 | 0 | 0.0 | 4.0 | 0.00 | 0.00 | 0.00 | 93 | 1010.7 |
| 20260506130539 | 75 | 0 | 0.0 | 4.0 | 0.00 | 0.00 | 0.00 | 93 | 1010.6 |
| 20260506130048 | 75 | 168 | 1.0 | 4.0 | 0.00 | 0.00 | 0.00 | 93 | 1010.5 |
| 20260506125539 | 75 | 107 | 1.0 | 3.0 | 0.00 | 0.00 | 0.00 | 93 | 1010.4 |
| 20260506125038 | 74 | 0 | 0.0 | 0.0 | 0.00 | 0.00 | 0.00 | 93 | 1010.4 |
| 20260506124546 | 74 | 0 | 0.0 | 0.0 | 0.00 | 0.00 | 0.00 | 93 | 1010.4 |
| 20260506124036 | 74 | 0 | 0.0 | 0.0 | 0.00 | 0.00 | 0.00 | 93 | 1010.4 |
| 20260506123536 | 74 | 0 | 0.0 | 0.0 | 0.00 | 0.00 | 0.00 | 93 | 1010.4 |
| 20260506123047 | 74 | 0 | 0.0 | 0.0 | 0.00 | 0.00 | 0.00 | 93 | 1010.4 |
| 20260506122536 | 74 | 0 | 0.0 | 0.0 | 0.00 | 0.00 | 0.00 | 93 | 1010.4 |
| 20260506122036 | 74 | 0 | 0.0 | 0.0 | 0.00 | 0.00 | 0.00 | 93 | 1010.4 |
| 20260506121550 | 74 | 0 | 0.0 | 0.0 | 0.00 | 0.00 | 0.00 | 93 | 1010.4 |
| 20260506121036 | 74 | 0 | 0.0 | 0.0 | 0.00 | 0.00 | 0.00 | 93 | 1010.3 |
| 20260506120536 | 74 | 0 | 0.0 | 0.0 | 0.00 | 0.00 | 0.00 | 93 | 1010.3 |
| 20260506120052 | 74 | 0 | 0.0 | 0.0 | 0.00 | 0.00 | 0.00 | 93 | 1010.4 |
| 20260506115539 | 74 | 0 | 0.0 | 0.0 | 0.00 | 0.00 | 0.00 | 93 | 1010.4 |
| 20260506115040 | 74 | 0 | 0.0 | 2.0 | 0.00 | 0.00 | 0.00 | 93 | 1010.2 |
| 20260506114549 | 74 | 0 | 0.0 | 2.0 | 0.00 | 0.00 | 0.00 | 93 | 1010.1 |
| 20260506114039 | 74 | 0 | 0.0 | 1.0 | 0.00 | 0.00 | 0.00 | 93 | 1010.0 |
| 20260506113536 | 74 | 0 | 0.0 | 0.0 | 0.00 | 0.00 | 0.00 | 93 | 1010.0 |
| 20260506113049 | 74 | 0 | 0.0 | 0.0 | 0.00 | 0.00 | 0.00 | 93 | 1009.9 |
| 20260506112536 | 74 | 0 | 0.0 | 0.0 | 0.00 | 0.00 | 0.00 | 93 | 1009.8 |
| 20260506112038 | 74 | 0 | 0.0 | 0.0 | 0.00 | 0.00 | 0.00 | 92 | 1009.8 |
| 20260506111551 | 74 | 0 | 0.0 | 0.0 | 0.00 | 0.00 | 0.00 | 92 | 1009.7 |
| 20260506111039 | 73 | 0 | 0.0 | 0.0 | 0.00 | 0.00 | 0.00 | 92 | 1009.9 |
| 20260506110536 | 73 | 0 | 0.0 | 0.0 | 0.00 | 0.00 | 0.00 | 92 | 1009.8 |
| 20260506110046 | 73 | 0 | 0.0 | 0.0 | 0.00 | 0.00 | 0.00 | 92 | 1009.7 |
| 20260506105536 | 73 | 0 | 0.0 | 0.0 | 0.00 | 0.00 | 0.00 | 92 | 1009.7 |
| 20260506105040 | 73 | 0 | 0.0 | 0.0 | 0.00 | 0.00 | 0.00 | 92 | 1009.6 |
| 20260506104610 | 74 | 0 | 0.0 | 0.0 | 0.00 | 0.00 | 0.00 | 92 | 1009.4 |
| 20260506104039 | 74 | 0 | 0.0 | 0.0 | 0.00 | 0.00 | 0.00 | 92 | 1009.4 |
| 20260506103540 | 74 | 0 | 0.0 | 0.0 | 0.00 | 0.00 | 0.00 | 92 | 1009.3 |
| 20260506103046 | 74 | 0 | 0.0 | 0.0 | 0.00 | 0.00 | 0.00 | 92 | 1009.4 |
| 20260506102537 | 74 | 0 | 0.0 | 0.0 | 0.00 | 0.00 | 0.00 | 92 | 1009.4 |
| 20260506102038 | 74 | 0 | 0.0 | 0.0 | 0.00 | 0.00 | 0.00 | 92 | 1009.4 |
| 20260506101549 | 74 | 0 | 0.0 | 0.0 | 0.00 | 0.00 | 0.00 | 92 | 1009.3 |
| 20260506101036 | 74 | 0 | 0.0 | 0.0 | 0.00 | 0.00 | 0.00 | 92 | 1009.3 |
| 20260506100538 | 74 | 0 | 0.0 | 1.0 | 0.00 | 0.00 | 0.00 | 92 | 1009.2 |
| 20260506100046 | 74 | 0 | 0.0 | 1.0 | 0.00 | 0.00 | 0.00 | 92 | 1009.4 |
| 20260506095536 | 74 | 0 | 0.0 | 0.0 | 0.00 | 0.00 | 0.00 | 92 | 1009.2 |
| 20260506095035 | 74 | 0 | 0.0 | 0.0 | 0.00 | 0.00 | 0.00 | 92 | 1009.1 |
| 20260506094546 | 74 | 0 | 0.0 | 0.0 | 0.00 | 0.00 | 0.00 | 92 | 1009.0 |
| 20260506094038 | 74 | 0 | 0.0 | 0.0 | 0.00 | 0.00 | 0.00 | 91 | 1009.2 |
| 20260506093539 | 74 | 0 | 0.0 | 0.0 | 0.00 | 0.00 | 0.00 | 91 | 1009.2 |
| 20260506093051 | 74 | 0 | 0.0 | 0.0 | 0.00 | 0.00 | 0.00 | 91 | 1009.2 |
| 20260506092539 | 74 | 0 | 0.0 | 0.0 | 0.00 | 0.00 | 0.00 | 91 | 1009.2 |
| 20260506092039 | 74 | 0 | 0.0 | 0.0 | 0.00 | 0.00 | 0.00 | 91 | 1009.3 |
| 20260506091548 | 74 | 0 | 0.0 | 1.0 | 0.00 | 0.00 | 0.00 | 91 | 1009.2 |
| 20260506091037 | 74 | 0 | 0.0 | 3.0 | 0.00 | 0.00 | 0.00 | 91 | 1009.2 |
| 20260506090539 | 74 | 0 | 0.0 | 3.0 | 0.00 | 0.00 | 0.00 | 91 | 1009.1 |
| 20260506090050 | 74 | 0 | 0.0 | 3.0 | 0.00 | 0.00 | 0.00 | 91 | 1009.0 |
| 20260506085538 | 74 | 174 | 0.0 | 0.0 | 0.00 | 0.00 | 0.00 | 91 | 1009.1 |
| 20260506085036 | 74 | 0 | 0.0 | 0.0 | 0.00 | 0.00 | 0.00 | 91 | 1009.1 |
| 20260506084550 | 74 | 0 | 0.0 | 0.0 | 0.00 | 0.00 | 0.00 | 91 | 1009.2 |
| 20260506084035 | 74 | 0 | 0.0 | 0.0 | 0.00 | 0.00 | 0.00 | 91 | 1009.1 |
| 20260506083536 | 74 | 0 | 0.0 | 0.0 | 0.00 | 0.00 | 0.00 | 91 | 1009.1 |
| 20260506083052 | 74 | 0 | 0.0 | 0.0 | 0.00 | 0.00 | 0.00 | 91 | 1009.2 |
| 20260506082537 | 74 | 0 | 0.0 | 0.0 | 0.00 | 0.00 | 0.00 | 91 | 1009.1 |
| 20260506082036 | 74 | 0 | 0.0 | 0.0 | 0.00 | 0.00 | 0.00 | 91 | 1009.1 |
| 20260506081558 | 74 | 0 | 0.0 | 2.0 | 0.00 | 0.00 | 0.00 | 91 | 1009.1 |
| 20260506081039 | 74 | 0 | 0.0 | 6.0 | 0.00 | 0.00 | 0.00 | 91 | 1009.1 |
| 20260506080536 | 74 | 174 | 1.0 | 6.0 | 0.00 | 0.00 | 0.00 | 91 | 1009.1 |
| 20260506073051 | 74 | 146 | 3.0 | 8.0 | 0.00 | 0.00 | 0.00 | 91 | 1009.0 |
| 20260506072536 | 74 | 148 | 3.0 | 7.0 | 0.00 | 0.00 | 0.00 | 91 | 1008.9 |
| 20260506072040 | 74 | 134 | 4.0 | 7.0 | 0.00 | 0.00 | 0.00 | 91 | 1009.0 |
| 20260506071552 | 74 | 160 | 3.0 | 7.0 | 0.00 | 0.00 | 0.00 | 91 | 1009.0 |
| 20260506071036 | 74 | 159 | 3.0 | 9.0 | 0.00 | 0.00 | 0.00 | 91 | 1009.1 |
| 20260506070536 | 74 | 155 | 4.0 | 9.0 | 0.00 | 0.00 | 0.00 | 91 | 1009.1 |
| 20260506062036 | 75 | 138 | 4.0 | 10.0 | 0.00 | 0.00 | 0.00 | 90 | 1009.1 |
| 20260506061551 | 75 | 115 | 4.0 | 8.0 | 0.00 | 0.00 | 0.00 | 89 | 1009.3 |
| 20260506061039 | 75 | 158 | 3.0 | 8.0 | 0.00 | 0.00 | 0.00 | 89 | 1009.3 |
| 20260506060539 | 75 | 134 | 4.0 | 11.0 | 0.00 | 0.00 | 0.00 | 89 | 1009.3 |
| 20260506051036 | 75 | 147 | 5.0 | 12.0 | 0.00 | 0.00 | 0.00 | 88 | 1009.5 |
| 20260506050536 | 75 | 169 | 5.0 | 12.0 | 0.00 | 0.00 | 0.00 | 88 | 1009.5 |
| 20260506045036 | 76 | 171 | 5.0 | 14.0 | 0.00 | 0.00 | 0.00 | 87 | 1009.2 |
| 20260506044604 | 76 | 175 | 6.0 | 14.0 | 0.00 | 0.00 | 0.00 | 87 | 1009.1 |
| 20260506044037 | 76 | 175 | 4.0 | 11.0 | 0.00 | 0.00 | 0.00 | 87 | 1009.0 |
| 20260506043539 | 76 | 120 | 4.0 | 13.0 | 0.00 | 0.00 | 0.00 | 87 | 1009.0 |
| 20260506043055 | 76 | 138 | 7.0 | 13.0 | 0.00 | 0.00 | 0.00 | 87 | 1009.0 |
| 20260506042539 | 76 | 171 | 7.0 | 14.0 | 0.00 | 0.00 | 0.00 | 87 | 1008.9 |
| 20260506042039 | 76 | 180 | 5.0 | 16.0 | 0.00 | 0.00 | 0.00 | 86 | 1009.0 |
| 20260506041553 | 76 | 190 | 5.0 | 16.0 | 0.00 | 0.00 | 0.00 | 86 | 1008.9 |
| 20260506041036 | 76 | 185 | 5.0 | 12.0 | 0.00 | 0.00 | 0.00 | 86 | 1008.9 |
| 20260506040535 | 77 | 170 | 5.0 | 14.0 | 0.00 | 0.00 | 0.00 | 86 | 1008.9 |
| 20260506040052 | 77 | 153 | 6.0 | 14.0 | 0.00 | 0.00 | 0.00 | 86 | 1008.8 |
| 20260506035536 | 77 | 157 | 7.0 | 14.0 | 0.00 | 0.00 | 0.00 | 86 | 1008.8 |
| 20260506035036 | 77 | 153 | 5.0 | 10.0 | 0.00 | 0.00 | 0.00 | 86 | 1008.8 |
| 20260506034557 | 77 | 169 | 3.0 | 12.0 | 0.00 | 0.00 | 0.00 | 86 | 1008.7 |
| 20260506034036 | 77 | 150 | 5.0 | 13.0 | 0.00 | 0.00 | 0.00 | 85 | 1008.6 |
| 20260506033536 | 77 | 178 | 6.0 | 13.0 | 0.00 | 0.00 | 0.00 | 85 | 1008.5 |
| 20260506033047 | 77 | 178 | 6.0 | 12.0 | 0.00 | 0.00 | 0.00 | 85 | 1008.5 |
| 20260506032536 | 77 | 186 | 5.0 | 10.0 | 0.00 | 0.00 | 0.00 | 85 | 1008.5 |
| 20260506032039 | 77 | 148 | 5.0 | 10.0 | 0.00 | 0.00 | 0.00 | 85 | 1008.4 |
| 20260506031552 | 77 | 165 | 4.0 | 15.0 | 0.00 | 0.00 | 0.00 | 85 | 1008.3 |
| 20260506031039 | 77 | 127 | 5.0 | 15.0 | 0.00 | 0.00 | 0.00 | 85 | 1008.3 |
| 20260506030537 | 77 | 150 | 4.0 | 10.0 | 0.00 | 0.00 | 0.00 | 86 | 1008.2 |
| 20260506030048 | 77 | 190 | 4.0 | 9.0 | 0.00 | 0.00 | 0.00 | 85 | 1008.2 |
| 20260506025535 | 77 | 213 | 4.0 | 9.0 | 0.00 | 0.00 | 0.00 | 85 | 1008.3 |
| 20260506025036 | 77 | 187 | 4.0 | 9.0 | 0.00 | 0.00 | 0.00 | 85 | 1008.2 |
| 20260506024549 | 77 | 170 | 3.0 | 7.0 | 0.00 | 0.00 | 0.00 | 85 | 1008.0 |
| 20260506024036 | 77 | 170 | 3.0 | 7.0 | 0.00 | 0.00 | 0.00 | 85 | 1007.9 |
| 20260506023537 | 77 | 155 | 4.0 | 8.0 | 0.00 | 0.00 | 0.00 | 85 | 1007.9 |
| 20260506023048 | 77 | 198 | 3.0 | 8.0 | 0.00 | 0.00 | 0.00 | 84 | 1007.8 |
| 20260506022536 | 77 | 171 | 3.0 | 8.0 | 0.00 | 0.00 | 0.00 | 84 | 1007.8 |
| 20260506022036 | 77 | 178 | 3.0 | 8.0 | 0.00 | 0.00 | 0.00 | 84 | 1007.8 |
| 20260506021554 | 77 | 164 | 3.0 | 8.0 | 0.00 | 0.00 | 0.00 | 84 | 1007.7 |
| 20260506021036 | 77 | 173 | 3.0 | 8.0 | 0.00 | 0.00 | 0.00 | 84 | 1007.8 |
| 20260506020539 | 77 | 0 | 2.0 | 4.0 | 0.00 | 0.00 | 0.00 | 83 | 1007.8 |
| 20260506020047 | 78 | 175 | 1.0 | 5.0 | 0.00 | 0.00 | 0.00 | 83 | 1007.8 |
| 20260506015539 | 78 | 0 | 1.0 | 5.0 | 0.00 | 0.00 | 0.00 | 83 | 1007.7 |
| 20260506015036 | 78 | 177 | 2.0 | 5.0 | 0.00 | 0.00 | 0.00 | 83 | 1007.6 |
| 20260506014547 | 78 | 172 | 1.0 | 7.0 | 0.00 | 0.00 | 0.00 | 82 | 1007.6 |
| 20260506014036 | 78 | 196 | 0.0 | 8.0 | 0.00 | 0.00 | 0.00 | 82 | 1007.5 |
| 20260506013536 | 78 | 215 | 2.0 | 8.0 | 0.00 | 0.00 | 0.00 | 82 | 1007.5 |
| 20260506013048 | 79 | 191 | 1.0 | 8.0 | 0.00 | 0.00 | 0.00 | 81 | 1007.4 |
| 20260506012539 | 79 | 180 | 3.0 | 10.0 | 0.00 | 0.00 | 0.00 | 81 | 1007.2 |
| 20260506012038 | 79 | 148 | 4.0 | 10.0 | 0.00 | 0.00 | 0.00 | 81 | 1007.0 |
| 20260506011555 | 79 | 153 | 4.0 | 8.0 | 0.00 | 0.00 | 0.00 | 81 | 1006.9 |
| 20260506011038 | 79 | 159 | 3.0 | 10.0 | 0.00 | 0.00 | 0.00 | 80 | 1006.8 |
| 20260506010536 | 79 | 175 | 3.0 | 12.0 | 0.00 | 0.00 | 0.00 | 80 | 1006.8 |
| 20260506010048 | 80 | 161 | 6.0 | 12.0 | 0.00 | 0.00 | 0.00 | 80 | 1006.8 |
| 20260506005539 | 80 | 178 | 5.0 | 14.0 | 0.00 | 0.00 | 0.00 | 80 | 1006.8 |
| 20260506005037 | 80 | 192 | 5.0 | 14.0 | 0.00 | 0.00 | 0.00 | 80 | 1006.7 |
| 20260506004547 | 80 | 160 | 3.0 | 9.0 | 0.00 | 0.00 | 0.00 | 79 | 1006.7 |
| 20260506004036 | 80 | 174 | 4.0 | 15.0 | 0.00 | 0.00 | 0.00 | 79 | 1006.7 |
| 20260506003538 | 80 | 169 | 5.0 | 15.0 | 0.00 | 0.00 | 0.00 | 79 | 1006.6 |
| 20260506003052 | 81 | 203 | 5.0 | 13.0 | 0.00 | 0.00 | 0.00 | 78 | 1006.6 |
| 20260506002536 | 81 | 205 | 5.0 | 13.0 | 0.00 | 0.00 | 0.00 | 78 | 1006.6 |
| 20260506002036 | 81 | 178 | 5.0 | 11.0 | 0.00 | 0.00 | 0.00 | 78 | 1006.6 |
| 20260506001555 | 81 | 188 | 4.0 | 10.0 | 0.00 | 0.00 | 0.00 | 79 | 1006.5 |
| 20260506001038 | 81 | 167 | 2.0 | 10.0 | 0.00 | 0.00 | 0.00 | 78 | 1006.4 |
| 20260506000540 | 81 | 188 | 5.0 | 10.0 | 0.00 | 0.00 | 0.00 | 78 | 1006.2 |
| 20260506000049 | 81 | 167 | 2.0 | 10.0 | 0.00 | 0.00 | 0.00 | 77 | 1006.2 |
| 20260505235539 | 81 | 187 | 4.0 | 14.0 | 0.00 | 0.00 | 0.00 | 77 | 1006.2 |
| 20260505235036 | 82 | 188 | 3.0 | 17.0 | 0.00 | 0.00 | 0.00 | 77 | 1006.1 |
| 20260505234607 | 82 | 171 | 4.0 | 20.0 | 0.00 | 0.00 | 0.00 | 76 | 1006.2 |
| 20260505234037 | 82 | 188 | 5.0 | 20.0 | 0.00 | 0.00 | 0.00 | 76 | 1006.2 |
| 20260505233536 | 82 | 178 | 6.0 | 14.0 | 0.00 | 0.00 | 0.00 | 76 | 1006.3 |
| 20260505233049 | 82 | 169 | 6.0 | 15.0 | 0.00 | 0.00 | 0.00 | 76 | 1006.3 |
| 20260505232538 | 82 | 157 | 7.0 | 15.0 | 0.00 | 0.00 | 0.00 | 76 | 1006.3 |
| 20260505232036 | 82 | 197 | 8.0 | 14.0 | 0.00 | 0.00 | 0.00 | 76 | 1006.2 |
| 20260505231549 | 82 | 170 | 5.0 | 16.0 | 0.00 | 0.00 | 0.00 | 76 | 1006.1 |
| 20260505231040 | 83 | 169 | 5.0 | 17.0 | 0.00 | 0.00 | 0.00 | 76 | 1006.1 |
| 20260505230539 | 83 | 143 | 7.0 | 18.0 | 0.00 | 0.00 | 0.00 | 75 | 1006.0 |
| 20260505230051 | 83 | 184 | 8.0 | 18.0 | 0.00 | 0.00 | 0.00 | 75 | 1006.0 |
| 20260505225540 | 83 | 192 | 7.0 | 17.0 | 0.00 | 0.00 | 0.00 | 75 | 1006.1 |
| 20260505225036 | 83 | 158 | 7.0 | 18.0 | 0.00 | 0.00 | 0.00 | 74 | 1006.1 |
| 20260505224555 | 84 | 186 | 8.0 | 21.0 | 0.00 | 0.00 | 0.00 | 74 | 1006.3 |
| 20260505224039 | 84 | 173 | 8.0 | 21.0 | 0.00 | 0.00 | 0.00 | 74 | 1006.3 |
| 20260505223537 | 84 | 167 | 6.0 | 14.0 | 0.00 | 0.00 | 0.00 | 74 | 1006.3 |
| 20260505223106 | 84 | 153 | 6.0 | 14.0 | 0.00 | 0.00 | 0.00 | 74 | 1006.3 |
| 20260505222536 | 84 | 171 | 5.0 | 14.0 | 0.00 | 0.00 | 0.00 | 74 | 1006.3 |
| 20260505222036 | 84 | 156 | 5.0 | 14.0 | 0.00 | 0.00 | 0.00 | 75 | 1006.3 |
| 20260505221550 | 84 | 200 | 5.0 | 14.0 | 0.00 | 0.00 | 0.00 | 74 | 1006.4 |
| 20260505221039 | 84 | 180 | 6.0 | 15.0 | 0.00 | 0.00 | 0.00 | 74 | 1006.5 |
| 20260505220539 | 84 | 188 | 6.0 | 15.0 | 0.00 | 0.00 | 0.00 | 74 | 1006.5 |
| 20260505220048 | 84 | 163 | 5.0 | 18.0 | 0.00 | 0.00 | 0.00 | 75 | 1006.5 |
| 20260505215537 | 84 | 163 | 6.0 | 17.0 | 0.00 | 0.00 | 0.00 | 74 | 1006.5 |
| 20260505215039 | 84 | 193 | 9.0 | 17.0 | 0.00 | 0.00 | 0.00 | 74 | 1006.6 |
| 20260505214559 | 83 | 155 | 4.0 | 15.0 | 0.00 | 0.00 | 0.00 | 75 | 1006.7 |
| 20260505214037 | 83 | 155 | 7.0 | 17.0 | 0.00 | 0.00 | 0.00 | 75 | 1006.7 |
| 20260505213537 | 83 | 194 | 8.0 | 17.0 | 0.00 | 0.00 | 0.00 | 74 | 1006.8 |
| 20260505213054 | 84 | 224 | 5.0 | 16.0 | 0.00 | 0.00 | 0.00 | 74 | 1006.8 |
| 20260505212536 | 84 | 173 | 5.0 | 13.0 | 0.00 | 0.00 | 0.00 | 74 | 1006.8 |
| 20260505212037 | 84 | 213 | 6.0 | 13.0 | 0.00 | 0.00 | 0.00 | 74 | 1006.8 |
| 20260505211556 | 84 | 107 | 4.0 | 16.0 | 0.00 | 0.00 | 0.00 | 75 | 1006.7 |
| 20260505211036 | 84 | 190 | 8.0 | 16.0 | 0.00 | 0.00 | 0.00 | 74 | 1006.8 |
| 20260505210536 | 84 | 208 | 4.0 | 15.0 | 0.00 | 0.00 | 0.00 | 74 | 1007.0 |
| 20260505210048 | 84 | 162 | 4.0 | 17.0 | 0.00 | 0.00 | 0.00 | 74 | 1007.0 |
| 20260505205536 | 84 | 144 | 7.0 | 17.0 | 0.00 | 0.00 | 0.00 | 73 | 1007.2 |
| 20260505205036 | 84 | 169 | 7.0 | 13.0 | 0.00 | 0.00 | 0.00 | 74 | 1007.2 |
| 20260505204552 | 84 | 179 | 3.0 | 9.0 | 0.00 | 0.00 | 0.00 | 74 | 1007.3 |
| 20260505204036 | 84 | 192 | 5.0 | 15.0 | 0.00 | 0.00 | 0.00 | 74 | 1007.3 |
| 20260505203536 | 84 | 252 | 6.0 | 16.0 | 0.00 | 0.00 | 0.00 | 74 | 1007.4 |
| 20260505203100 | 84 | 190 | 6.0 | 16.0 | 0.00 | 0.00 | 0.00 | 73 | 1007.5 |
| 20260505202536 | 85 | 175 | 5.0 | 14.0 | 0.00 | 0.00 | 0.00 | 74 | 1007.5 |
| 20260505202036 | 85 | 184 | 4.0 | 14.0 | 0.00 | 0.00 | 0.00 | 74 | 1007.6 |
| 20260505201545 | 85 | 184 | 5.0 | 13.0 | 0.00 | 0.00 | 0.00 | 74 | 1007.6 |
| 20260505201037 | 84 | 180 | 4.0 | 14.0 | 0.00 | 0.00 | 0.00 | 74 | 1007.7 |
| 20260505200537 | 84 | 180 | 5.0 | 14.0 | 0.00 | 0.00 | 0.00 | 74 | 1007.7 |
| 20260505200048 | 84 | 194 | 4.0 | 14.0 | 0.00 | 0.00 | 0.00 | 75 | 1007.8 |
| 20260505195537 | 83 | 180 | 4.0 | 13.0 | 0.00 | 0.00 | 0.00 | 74 | 1007.8 |
| 20260505195035 | 83 | 207 | 4.0 | 13.0 | 0.00 | 0.00 | 0.00 | 74 | 1007.8 |
| 20260505194548 | 83 | 195 | 5.0 | 16.0 | 0.00 | 0.00 | 0.00 | 74 | 1008.0 |
| 20260505194037 | 83 | 180 | 6.0 | 16.0 | 0.00 | 0.00 | 0.00 | 75 | 1007.9 |
| 20260505193536 | 83 | 205 | 4.0 | 12.0 | 0.00 | 0.00 | 0.00 | 75 | 1008.1 |
| 20260505193046 | 83 | 158 | 4.0 | 18.0 | 0.00 | 0.00 | 0.00 | 74 | 1008.1 |
| 20260505192538 | 83 | 168 | 4.0 | 18.0 | 0.00 | 0.00 | 0.00 | 77 | 1008.1 |
| 20260505192036 | 83 | 202 | 5.0 | 15.0 | 0.00 | 0.00 | 0.00 | 75 | 1008.2 |
| 20260505191550 | 83 | 190 | 4.0 | 16.0 | 0.00 | 0.00 | 0.00 | 75 | 1008.2 |
| 20260505191035 | 83 | 163 | 6.0 | 16.0 | 0.00 | 0.00 | 0.00 | 77 | 1008.1 |
| 20260505190536 | 82 | 169 | 5.0 | 16.0 | 0.00 | 0.00 | 0.00 | 78 | 1008.2 |
| 20260505190045 | 82 | 263 | 7.0 | 13.0 | 0.00 | 0.00 | 0.00 | 77 | 1008.3 |
| 20260505185537 | 82 | 206 | 3.0 | 12.0 | 0.00 | 0.00 | 0.00 | 77 | 1008.4 |